createdAt,value
2022-09-09T00:00:28.560Z,6.87
2022-09-09T00:03:16.281Z,6.13
2022-09-09T00:05:50.633Z,7.03
2022-09-09T00:08:26.378Z,6.63
2022-09-09T00:11:06.393Z,6.87
2022-09-09T00:13:50.360Z,7.73
2022-09-09T00:16:33.192Z,7.43
2022-09-09T00:19:44.049Z,7.67
2022-09-09T00:22:28.077Z,8.37
2022-09-09T00:25:17.249Z,8.33
2022-09-09T00:27:50.228Z,7.53
2022-09-09T00:30:26.835Z,8.00
2022-09-09T00:33:04.326Z,8.00
2022-09-09T00:35:37.010Z,7.90
2022-09-09T00:38:51.039Z,8.03
2022-09-09T00:41:52.524Z,8.20
2022-09-09T00:44:36.860Z,8.47
2022-09-09T00:47:32.454Z,8.10
2022-09-09T00:50:11.918Z,9.00
2022-09-09T00:52:54.610Z,8.80
2022-09-09T00:55:36.516Z,8.43
2022-09-09T00:58:04.377Z,9.10
2022-09-09T01:00:37.478Z,9.00
2022-09-09T01:03:18.665Z,9.07
2022-09-09T01:05:58.220Z,10.50
2022-09-09T01:08:57.104Z,8.70
2022-09-09T01:11:30.678Z,9.83
2022-09-09T01:14:11.366Z,9.60
2022-09-09T01:16:39.450Z,9.70
2022-09-09T01:19:12.179Z,9.27
2022-09-09T01:22:17.498Z,10.17
2022-09-09T01:25:23.915Z,9.80
2022-09-09T01:27:54.107Z,9.20
2022-09-09T01:30:23.211Z,9.50
2022-09-09T01:32:55.290Z,9.00
2022-09-09T01:35:31.911Z,9.03
2022-09-09T01:37:59.605Z,9.57
2022-09-09T01:40:27.747Z,8.77
2022-09-09T01:42:56.005Z,9.13
2022-09-09T01:45:28.055Z,10.53
2022-09-09T01:47:55.805Z,9.37
2022-09-09T01:50:23.810Z,9.50
2022-09-09T01:52:57.518Z,9.60
2022-09-09T01:55:40.544Z,9.17
2022-09-09T01:58:36.849Z,11.10
2022-09-09T02:01:19.541Z,9.53
2022-09-09T02:03:55.480Z,9.77
2022-09-09T02:06:33.696Z,11.00
2022-09-09T02:09:05.574Z,12.43
2022-09-09T02:11:33.561Z,11.20
2022-09-09T02:14:26.642Z,11.40
2022-09-09T02:17:03.183Z,12.27
2022-09-09T02:19:42.278Z,12.43
2022-09-09T02:22:10.489Z,12.27
2022-09-09T02:24:40.276Z,11.50
2022-09-09T02:27:10.493Z,10.47
2022-09-09T02:29:44.385Z,11.30
2022-09-09T02:32:19.837Z,11.27
2022-09-09T02:34:51.693Z,10.50
2022-09-09T02:37:21.425Z,9.53
2022-09-09T02:39:49.157Z,10.27
2022-09-09T02:42:16.552Z,9.60
2022-09-09T02:44:44.182Z,9.93
2022-09-09T02:47:37.978Z,9.63
2022-09-09T02:50:24.078Z,9.60
2022-09-09T02:53:16.444Z,8.30
2022-09-09T02:56:05.270Z,8.37
2022-09-09T02:58:33.053Z,8.97
2022-09-09T03:01:02.500Z,9.43
2022-09-09T03:03:30.368Z,8.27
2022-09-09T03:05:58.351Z,8.63
2022-09-09T03:08:25.630Z,8.33
2022-09-09T03:10:55.572Z,8.33
2022-09-09T03:13:22.949Z,9.63
2022-09-09T03:15:50.209Z,9.10
2022-09-09T03:18:17.737Z,8.70
2022-09-09T03:20:45.192Z,8.80
2022-09-09T03:23:15.948Z,8.50
2022-09-09T03:25:51.166Z,9.13
2022-09-09T03:28:18.706Z,10.43
2022-09-09T03:30:45.973Z,10.83
2022-09-09T03:33:13.959Z,9.83
2022-09-09T03:35:50.195Z,9.47
2022-09-09T03:38:18.306Z,9.10
2022-09-09T03:40:56.397Z,8.87
2022-09-09T03:43:25.264Z,8.60
2022-09-09T03:45:53.209Z,9.50
2022-09-09T03:48:21.056Z,8.93
2022-09-09T03:50:50.182Z,9.87
2022-09-09T03:53:20.460Z,9.77
2022-09-09T03:55:48.848Z,9.10
2022-09-09T03:58:17.667Z,9.13
2022-09-09T04:00:46.300Z,9.30
2022-09-09T04:03:13.681Z,9.40
2022-09-09T04:05:43.569Z,9.37
2022-09-09T04:08:11.154Z,9.90
2022-09-09T04:10:38.498Z,9.73
2022-09-09T04:13:06.678Z,11.87
2022-09-09T04:15:36.040Z,14.83
2022-09-09T04:18:03.530Z,13.43
2022-09-09T04:20:31.517Z,13.60
2022-09-09T04:22:59.141Z,11.50
2022-09-09T04:25:26.682Z,12.27
2022-09-09T04:27:57.835Z,10.90
2022-09-09T04:30:26.464Z,11.23
2022-09-09T04:32:53.694Z,12.00
2022-09-09T04:35:21.399Z,11.90
2022-09-09T04:37:49.888Z,9.77
2022-09-09T04:40:17.297Z,12.97
2022-09-09T04:42:45.294Z,13.23
2022-09-09T04:45:12.829Z,10.60
2022-09-09T04:47:40.233Z,11.03
2022-09-09T04:50:08.337Z,8.93
2022-09-09T04:52:36.949Z,9.70
2022-09-09T04:55:05.298Z,9.67
2022-09-09T04:57:33.548Z,10.07
2022-09-09T05:00:01.320Z,10.10
2022-09-09T05:02:31.484Z,9.80
2022-09-09T05:04:59.591Z,9.73
2022-09-09T05:07:29.180Z,9.27
2022-09-09T05:09:56.906Z,9.83
2022-09-09T05:12:26.965Z,12.93
2022-09-09T05:14:54.638Z,12.00
2022-09-09T05:17:22.779Z,13.43
2022-09-09T05:19:50.580Z,13.77
2022-09-09T05:22:24.572Z,10.33
2022-09-09T05:24:55.244Z,12.27
2022-09-09T05:27:23.014Z,13.10
2022-09-09T05:29:50.353Z,10.37
2022-09-09T05:32:18.434Z,7.70
2022-09-09T05:34:45.700Z,7.00
2022-09-09T05:37:13.248Z,8.20
2022-09-09T05:39:40.760Z,9.40
2022-09-09T05:42:08.476Z,11.63
2022-09-09T05:44:35.987Z,5.93
2022-09-09T05:47:04.102Z,7.30
2022-09-09T05:49:31.467Z,5.50
2022-09-09T05:51:58.760Z,5.07
2022-09-09T05:54:26.623Z,4.50
2022-09-09T05:56:54.869Z,4.13
2022-09-09T05:59:23.243Z,4.03
2022-09-09T06:01:50.646Z,3.50
2022-09-09T06:04:18.061Z,3.30
2022-09-09T06:06:45.341Z,2.90
2022-09-09T06:09:13.157Z,3.30
2022-09-09T06:11:41.651Z,3.00
2022-09-09T06:14:09.700Z,2.73
2022-09-09T06:16:39.001Z,2.70
2022-09-09T06:19:06.531Z,3.10
2022-09-09T06:21:41.453Z,2.83
2022-09-09T06:24:08.980Z,2.40
2022-09-09T06:26:44.067Z,2.27
2022-09-09T06:29:11.937Z,2.20
2022-09-09T06:31:39.608Z,2.40
2022-09-09T06:34:08.705Z,2.33
2022-09-09T06:36:38.600Z,2.20
2022-09-09T06:39:10.869Z,2.03
2022-09-09T06:41:41.387Z,1.90
2022-09-09T06:44:16.707Z,2.10
2022-09-09T06:46:44.653Z,2.27
2022-09-09T06:49:11.973Z,1.80
2022-09-09T06:51:44.233Z,2.13
2022-09-09T06:54:13.135Z,1.77
2022-09-09T06:56:44.730Z,2.40
2022-09-09T06:59:13.447Z,1.83
2022-09-09T07:01:43.172Z,1.83
2022-09-09T07:04:12.280Z,1.40
2022-09-09T07:06:45.469Z,1.47
2022-09-09T07:09:16.216Z,1.70
2022-09-09T07:11:49.085Z,1.70
2022-09-09T07:14:16.852Z,1.83
2022-09-09T07:16:45.259Z,1.70
2022-09-09T07:19:13.823Z,1.53
2022-09-09T07:21:41.694Z,1.73
2022-09-09T07:24:13.658Z,1.55
2022-09-09T07:26:41.749Z,1.30
2022-09-09T07:29:10.191Z,1.15
2022-09-09T07:31:39.359Z,1.35
2022-09-09T07:34:07.385Z,1.30
2022-09-09T07:36:37.266Z,1.40
2022-09-09T07:39:07.558Z,1.35
2022-09-09T07:41:41.088Z,1.10
2022-09-09T07:44:12.086Z,1.35
2022-09-09T07:46:43.154Z,1.30
2022-09-09T07:49:12.171Z,1.10
2022-09-09T07:51:42.205Z,1.00
2022-09-09T07:54:12.698Z,1.17
2022-09-09T07:56:41.846Z,1.30
2022-09-09T07:59:11.589Z,1.10
2022-09-09T08:01:45.023Z,1.25
2022-09-09T08:04:20.845Z,1.30
2022-09-09T08:06:54.221Z,1.13
2022-09-09T08:09:23.085Z,0.98
2022-09-09T08:11:50.386Z,1.20
2022-09-09T08:14:17.958Z,1.17
2022-09-09T08:16:48.239Z,1.42
2022-09-09T08:19:18.819Z,1.25
2022-09-09T08:21:46.698Z,2.40
2022-09-09T08:24:17.937Z,1.23
2022-09-09T08:26:48.702Z,1.42
2022-09-09T08:29:16.906Z,1.30
2022-09-09T08:31:50.220Z,1.20
2022-09-09T08:34:21.367Z,1.30
2022-09-09T08:36:50.118Z,1.30
2022-09-09T08:39:20.171Z,1.33
2022-09-09T08:42:03.883Z,1.27
2022-09-09T08:45:03.942Z,1.20
2022-09-09T08:47:55.977Z,1.00
2022-09-09T08:50:29.484Z,1.17
2022-09-09T08:53:07.436Z,0.90
2022-09-09T08:56:00.525Z,1.00
2022-09-09T08:58:31.794Z,1.00
2022-09-09T09:01:11.551Z,1.10
2022-09-09T09:04:08.381Z,1.02
2022-09-09T09:06:44.654Z,1.42
2022-09-09T09:09:32.475Z,1.15
2022-09-09T09:12:04.869Z,0.80
2022-09-09T09:14:35.559Z,1.10
2022-09-09T09:17:11.237Z,1.13
2022-09-09T09:19:42.318Z,0.90
2022-09-09T09:22:26.641Z,1.45
2022-09-09T09:24:55.524Z,1.25
2022-09-09T09:27:49.126Z,1.13
2022-09-09T09:30:29.399Z,1.10
2022-09-09T09:33:15.029Z,1.08
2022-09-09T09:35:44.408Z,0.90
2022-09-09T09:41:16.822Z,0.93
2022-09-09T09:43:55.152Z,0.80
2022-09-09T09:46:25.150Z,1.00
2022-09-09T09:49:06.934Z,0.80
2022-09-09T09:51:35.396Z,0.60
2022-09-09T09:54:14.616Z,0.73
2022-09-09T09:56:44.116Z,1.00
2022-09-09T09:59:39.201Z,0.70
2022-09-09T10:02:14.336Z,1.23
2022-09-09T10:04:42.679Z,0.80
2022-09-09T10:07:14.887Z,0.75
2022-09-09T10:09:42.386Z,1.58
2022-09-09T10:12:18.443Z,1.17
2022-09-09T10:14:48.973Z,0.75
2022-09-09T10:17:57.667Z,0.70
2022-09-09T10:20:39.550Z,1.10
2022-09-09T10:23:33.050Z,0.60
2022-09-09T10:26:14.840Z,0.95
2022-09-09T10:29:08.915Z,0.57
2022-09-09T10:31:58.176Z,0.80
2022-09-09T10:34:47.458Z,0.70
2022-09-09T10:37:46.450Z,1.02
2022-09-09T10:40:23.285Z,0.82
2022-09-09T10:42:50.894Z,1.70
2022-09-09T10:45:24.788Z,0.98
2022-09-09T10:48:11.078Z,0.82
2022-09-09T10:51:00.956Z,0.68
2022-09-09T10:53:39.999Z,0.73
2022-09-09T10:56:16.016Z,0.80
2022-09-09T10:58:56.556Z,0.70
2022-09-09T11:01:33.779Z,0.80
2022-09-09T11:04:12.926Z,1.27
2022-09-09T11:06:45.703Z,0.70
2022-09-09T11:09:19.669Z,0.60
2022-09-09T11:11:55.026Z,0.82
2022-09-09T11:14:39.182Z,0.57
2022-09-09T11:17:35.406Z,0.68
2022-09-09T11:20:03.341Z,0.90
2022-09-09T11:22:43.938Z,0.70
2022-09-09T11:25:36.142Z,1.10
2022-09-09T11:28:28.197Z,0.70
2022-09-09T11:31:24.588Z,1.10
2022-09-09T11:34:16.305Z,0.65
2022-09-09T11:36:57.920Z,0.50
2022-09-09T11:39:28.425Z,0.93
2022-09-09T11:42:08.056Z,1.25
2022-09-09T11:44:35.509Z,0.68
2022-09-09T11:47:02.864Z,0.85
2022-09-09T11:49:43.170Z,0.55
2022-09-09T11:52:26.931Z,1.00
2022-09-09T11:54:57.696Z,0.70
2022-09-09T11:57:35.596Z,0.50
2022-09-09T12:00:04.448Z,0.77
2022-09-09T12:02:35.706Z,0.70
2022-09-09T12:05:10.521Z,0.50
2022-09-09T12:07:49.489Z,0.80
2022-09-09T12:10:31.068Z,0.60
2022-09-09T12:13:23.362Z,0.85
2022-09-09T12:15:56.847Z,0.60
2022-09-09T12:18:33.141Z,0.93
2022-09-09T12:21:34.659Z,0.70
2022-09-09T12:24:12.911Z,0.80
2022-09-09T12:26:45.876Z,0.90
2022-09-09T12:29:31.371Z,0.70
2022-09-09T12:32:09.305Z,0.55
2022-09-09T12:35:01.889Z,0.73
2022-09-09T12:37:37.005Z,0.60
2022-09-09T12:40:40.390Z,0.90
2022-09-09T12:43:24.680Z,0.60
2022-09-09T12:45:59.052Z,0.70
2022-09-09T12:48:35.810Z,0.70
2022-09-09T12:51:04.664Z,0.60
2022-09-09T12:53:35.603Z,1.00
2022-09-09T12:56:09.090Z,1.00
2022-09-09T12:58:39.145Z,0.70
2022-09-09T13:01:07.930Z,0.70
2022-09-09T13:03:44.221Z,0.60
2022-09-09T13:06:28.827Z,0.90
2022-09-09T13:09:02.187Z,0.70
2022-09-09T13:11:57.754Z,0.75
2022-09-09T13:14:31.360Z,0.90
2022-09-09T13:17:07.480Z,0.90
2022-09-09T13:19:39.407Z,0.80
2022-09-09T13:22:28.820Z,0.50
2022-09-09T13:25:11.936Z,0.50
2022-09-09T13:27:54.629Z,0.45
2022-09-09T13:30:24.576Z,0.63
2022-09-09T13:33:23.923Z,0.80
2022-09-09T13:36:01.252Z,0.70
2022-09-09T13:38:31.108Z,0.60
2022-09-09T13:41:10.067Z,0.50
2022-09-09T13:43:43.840Z,0.88
2022-09-09T13:46:33.034Z,0.80
2022-09-09T13:49:02.775Z,0.95
2022-09-09T13:51:38.531Z,0.50
2022-09-09T13:54:08.007Z,0.70
2022-09-09T13:56:36.532Z,0.68
2022-09-09T13:59:08.016Z,0.63
2022-09-09T14:01:36.397Z,0.85
2022-09-09T14:04:10.358Z,0.85
2022-09-09T14:06:41.056Z,0.80
2022-09-09T14:09:16.743Z,1.85
2022-09-09T14:11:45.205Z,1.25
2022-09-09T14:14:12.566Z,1.30
2022-09-09T14:16:40.129Z,3.38
2022-09-09T14:19:07.496Z,2.58
2022-09-09T14:21:35.293Z,1.85
2022-09-09T14:24:03.733Z,1.02
2022-09-09T14:26:31.623Z,0.98
2022-09-09T14:28:59.262Z,0.88
2022-09-09T14:31:27.124Z,1.20
2022-09-09T14:33:55.135Z,19.42
2022-09-09T14:36:22.817Z,45.63
2022-09-09T14:38:50.308Z,7.15
2022-09-09T14:41:19.529Z,4.82
2022-09-09T14:43:47.584Z,6.53
2022-09-09T14:46:21.070Z,5.18
2022-09-09T14:51:32.497Z,5.90
2022-09-09T14:54:00.829Z,1.00
2022-09-09T14:56:31.068Z,0.85
2022-09-09T14:59:00.179Z,0.90
2022-09-09T15:01:28.555Z,1.02
2022-09-09T15:03:59.395Z,1.67
2022-09-09T15:06:28.998Z,1.35
2022-09-09T15:08:59.078Z,1.00
2022-09-09T15:11:29.558Z,1.20
2022-09-09T15:13:57.240Z,0.82
2022-09-09T15:16:27.885Z,2.75
2022-09-09T15:18:58.310Z,0.95
2022-09-09T15:21:30.726Z,1.40
2022-09-09T15:23:59.165Z,2.80
2022-09-09T15:26:28.408Z,1.92
2022-09-09T15:28:56.245Z,4.00
2022-09-09T15:31:26.083Z,2.10
2022-09-09T15:34:03.374Z,2.20
2022-09-09T15:36:35.309Z,4.25
2022-09-09T15:39:04.667Z,2.00
2022-09-09T15:41:35.226Z,1.17
2022-09-09T15:44:03.518Z,1.52
2022-09-09T15:46:37.915Z,3.85
2022-09-09T15:49:23.475Z,12.95
2022-09-09T15:52:04.718Z,19.00
2022-09-09T15:54:40.291Z,2.47
2022-09-09T15:57:13.179Z,2.30
2022-09-09T15:59:41.522Z,2.17
2022-09-09T16:02:11.015Z,1.60
2022-09-09T16:04:38.946Z,1.40
2022-09-09T16:07:07.281Z,2.17
2022-09-09T16:09:36.384Z,3.33
2022-09-09T16:12:11.215Z,2.10
2022-09-09T16:14:39.914Z,2.95
2022-09-09T16:17:07.802Z,1.70
2022-09-09T16:19:35.942Z,1.70
2022-09-09T16:22:05.368Z,2.15
2022-09-09T16:24:32.852Z,1.92
2022-09-09T16:27:01.096Z,1.95
2022-09-09T16:29:28.566Z,1.83
2022-09-09T16:31:58.877Z,1.80
2022-09-09T16:34:30.904Z,1.30
2022-09-09T16:36:58.812Z,1.27
2022-09-09T16:39:26.469Z,1.20
2022-09-09T16:41:54.215Z,1.70
2022-09-09T16:44:21.808Z,2.03
2022-09-09T16:46:56.863Z,1.98
2022-09-09T16:49:30.429Z,3.00
2022-09-09T16:52:00.311Z,2.60
2022-09-09T16:54:29.031Z,2.03
2022-09-09T16:56:57.397Z,3.15
2022-09-09T16:59:27.851Z,3.78
2022-09-09T17:01:58.478Z,7.15
2022-09-09T17:04:29.347Z,7.70
2022-09-09T17:06:58.676Z,6.97
2022-09-09T17:09:30.923Z,5.38
2022-09-09T17:11:58.671Z,5.15
2022-09-09T17:14:26.368Z,3.03
2022-09-09T17:16:54.136Z,3.22
2022-09-09T17:19:21.423Z,3.22
2022-09-09T17:24:36.994Z,6.30
2022-09-09T17:27:04.927Z,6.53
2022-09-09T17:29:32.252Z,11.07
2022-09-09T17:31:59.664Z,29.63
2022-09-09T17:34:27.121Z,55.55
2022-09-09T17:36:54.728Z,35.72
2022-09-09T17:39:22.162Z,24.35
2022-09-09T17:41:50.427Z,30.35
2022-09-09T17:44:19.149Z,34.03
2022-09-09T17:46:46.730Z,25.75
2022-09-09T17:49:16.621Z,26.13
2022-09-09T17:51:45.650Z,71.10
2022-09-09T17:54:26.047Z,55.55
2022-09-09T17:56:53.675Z,30.55
2022-09-09T17:59:21.639Z,38.22
2022-09-09T18:01:51.242Z,34.53
2022-09-09T18:04:20.714Z,37.25
2022-09-09T18:06:52.066Z,37.47
2022-09-09T18:09:23.960Z,37.65
2022-09-09T18:11:55.918Z,29.45
2022-09-09T18:14:26.277Z,18.30
2022-09-09T18:16:54.121Z,6.30
2022-09-09T18:19:25.238Z,4.25
2022-09-09T18:21:54.680Z,4.83
2022-09-09T18:24:24.075Z,4.47
2022-09-09T18:26:51.770Z,4.32
2022-09-09T18:29:25.398Z,3.97
2022-09-09T18:31:54.632Z,4.90
2022-09-09T18:34:23.551Z,3.45
2022-09-09T18:36:54.119Z,3.20
2022-09-09T18:39:25.294Z,4.40
2022-09-09T18:41:55.712Z,6.40
2022-09-09T18:44:30.643Z,9.77
2022-09-09T18:46:58.352Z,11.80
2022-09-09T18:49:27.769Z,7.10
2022-09-09T18:51:55.305Z,5.25
2022-09-09T18:54:30.488Z,5.03
2022-09-09T18:57:01.599Z,4.27
2022-09-09T18:59:29.687Z,3.80
2022-09-09T19:01:57.330Z,3.00
2022-09-09T19:04:27.653Z,2.40
2022-09-09T19:06:58.425Z,2.50
2022-09-09T19:09:32.283Z,2.93
2022-09-09T19:12:03.952Z,5.30
2022-09-09T19:14:35.559Z,6.07
2022-09-09T19:17:03.670Z,6.10
2022-09-09T19:19:32.996Z,6.47
2022-09-09T19:22:04.639Z,6.00
2022-09-09T19:24:33.809Z,6.00
2022-09-09T19:27:04.953Z,4.67
2022-09-09T19:29:34.978Z,4.93
2022-09-09T19:32:49.719Z,4.93
2022-09-09T19:34:53.497Z,5.50
2022-09-09T19:37:24.217Z,2.87
2022-09-09T19:39:55.882Z,2.90
2022-09-09T19:42:25.387Z,4.97
2022-09-09T19:44:52.884Z,6.40
2022-09-09T19:47:23.134Z,4.53
2022-09-09T19:49:53.636Z,5.00
2022-09-09T19:52:22.256Z,5.40
2022-09-09T19:54:50.136Z,4.83
2022-09-09T19:57:20.495Z,4.90
2022-09-09T19:59:48.753Z,3.83
2022-09-09T20:02:16.368Z,4.23
2022-09-09T20:04:43.886Z,4.17
2022-09-09T20:07:11.811Z,6.87
2022-09-09T20:09:40.195Z,6.57
2022-09-09T20:12:08.166Z,4.63
2022-09-09T20:14:39.552Z,5.67
2022-09-09T20:17:07.664Z,8.20
2022-09-09T20:19:41.338Z,10.47
2022-09-09T20:22:09.536Z,5.87
2022-09-09T20:24:37.311Z,5.73
2022-09-09T20:27:05.059Z,4.13
2022-09-09T20:29:32.530Z,4.03
2022-09-09T20:31:59.973Z,6.00
2022-09-09T20:34:28.461Z,5.97
2022-09-09T20:36:59.263Z,5.03
2022-09-09T20:39:28.070Z,4.30
2022-09-09T20:41:55.525Z,4.37
2022-09-09T20:44:24.521Z,4.33
2022-09-09T20:47:04.534Z,5.80
2022-09-09T20:49:32.228Z,6.57
2022-09-09T20:51:59.548Z,5.27
2022-09-09T20:54:30.803Z,5.17
2022-09-09T20:57:00.641Z,4.67
2022-09-09T20:59:30.064Z,4.43
2022-09-09T21:01:58.731Z,4.00
2022-09-09T21:04:26.371Z,4.43
2022-09-09T21:06:53.954Z,3.10
2022-09-09T21:09:23.562Z,2.63
2022-09-09T21:11:51.745Z,2.27
2022-09-09T21:14:19.089Z,2.47
2022-09-09T21:16:46.362Z,2.67
2022-09-09T21:19:13.784Z,1.97
2022-09-09T21:21:41.048Z,1.73
2022-09-09T21:24:08.279Z,2.20
2022-09-09T21:26:36.047Z,1.80
2022-09-09T21:29:03.856Z,1.50
2022-09-09T21:31:31.700Z,1.90
2022-09-09T21:33:59.909Z,1.37
2022-09-09T21:36:28.811Z,1.20
2022-09-09T21:38:57.034Z,1.23
2022-09-09T21:41:24.379Z,1.33
2022-09-09T21:43:55.499Z,1.03
2022-09-09T21:46:26.814Z,0.80
2022-09-09T21:48:56.675Z,0.80
2022-09-09T21:51:25.058Z,0.83
2022-09-09T21:53:57.060Z,1.27
2022-09-09T21:56:25.092Z,1.00
2022-09-09T21:59:00.016Z,1.00
2022-09-09T22:01:27.394Z,1.73
2022-09-09T22:03:55.246Z,1.50
2022-09-09T22:06:22.704Z,1.60
2022-09-09T22:08:59.308Z,1.00
2022-09-09T22:11:27.096Z,1.70
2022-09-09T22:13:54.370Z,1.10
2022-09-09T22:16:23.962Z,1.57
2022-09-09T22:18:53.548Z,1.30
2022-09-09T22:21:22.268Z,1.30
2022-09-09T22:23:54.880Z,1.00
2022-09-09T22:26:23.319Z,1.00
2022-09-09T22:28:51.735Z,1.03
2022-09-09T22:31:19.404Z,0.90
2022-09-09T22:33:47.143Z,1.10
2022-09-09T22:36:14.834Z,0.90
2022-09-09T22:38:42.144Z,1.10
2022-09-09T22:41:10.395Z,1.33
2022-09-09T22:43:37.974Z,1.20
2022-09-09T22:46:05.389Z,1.30
2022-09-09T22:48:36.285Z,1.00
2022-09-09T22:51:08.626Z,0.97
2022-09-09T22:53:36.423Z,1.10
2022-09-09T22:56:07.394Z,1.07
2022-09-09T22:58:37.155Z,0.90
2022-09-09T23:01:17.329Z,1.00
2022-09-09T23:03:47.994Z,0.90
2022-09-09T23:06:22.763Z,0.90
2022-09-09T23:08:58.691Z,1.13
2022-09-09T23:11:32.249Z,0.80
2022-09-09T23:14:01.625Z,1.33
2022-09-09T23:16:40.356Z,0.90
2022-09-09T23:19:10.508Z,1.30
2022-09-09T23:21:42.185Z,0.60
2022-09-09T23:24:12.235Z,1.27
2022-09-09T23:26:39.905Z,0.87
2022-09-09T23:29:07.231Z,0.80
2022-09-09T23:31:38.204Z,1.07
2022-09-09T23:34:06.377Z,0.90
2022-09-09T23:36:34.311Z,0.90
2022-09-09T23:39:04.705Z,1.20
2022-09-09T23:41:35.555Z,0.70
2022-09-09T23:44:04.615Z,0.70
2022-09-09T23:46:33.553Z,0.73
2022-09-09T23:49:02.795Z,1.10
2022-09-09T23:51:32.082Z,0.83
2022-09-09T23:54:03.243Z,0.70
2022-09-09T23:56:35.659Z,0.70
2022-09-09T23:59:03.369Z,1.17
